Time;durP1;ratioP1;P1;durP2;ratioP2;P2;SDS_P1;SDS_P2;PMS_P1;PMS_P2;Temp;Humidity;BMP_temperature;BMP_pressure;BME280_temperature;BME280_humidity;BME280_pressure;Samples;Min_cycle;Max_cycle;Signal;HPM_P1;HPM_P2
2023/04/16 10:52:12;;;;;;;;;;;;;;;13.82;65.00;98174.94;6048600;23;20804;-64
2023/04/16 10:54:37;;;;;;;;;;;;;;;13.94;65.54;98183.66;4969479;28;19962;-63
2023/04/16 10:57:03;;;;;;;;;;;;;;;14.02;65.25;98187.31;4974188;28;19961;-64
2023/04/16 10:59:33;;;;;;;;;;;;;;;13.93;63.60;98193.34;4969027;28;19936;-64
2023/04/16 11:02:00;;;;;;;;;;;;;;;13.98;65.39;98183.25;4965869;28;19969;-63
2023/04/16 11:04:26;;;;;;;;;;;;;;;14.02;66.72;98187.31;4954703;28;19922;-64
2023/04/16 11:07:17;;;;;;;;;;;;;;;14.01;63.73;98190.09;4951778;29;19918;-63
2023/04/16 11:09:43;;;;;;;;;;;;;;;13.94;64.03;98188.94;4949386;28;20217;-64
2023/04/16 11:12:08;;;;;;;;;;;;;;;14.05;64.57;98190.66;4968169;28;19961;-63
2023/04/16 11:14:34;;;;;;;;;;;;;;;14.11;64.83;98195.41;4967552;28;20400;-64
2023/04/16 11:17:01;;;;;;;;;;;;;;;14.04;64.37;98191.63;4953326;28;19977;-64
2023/04/16 11:19:26;;;;;;;;;;;;;;;13.97;65.00;98202.69;4950961;28;19937;-64
2023/04/16 11:21:51;;;;;;;;;;;;;;;13.95;65.02;98195.88;4950020;29;19918;-64
2023/04/16 11:24:17;;;;;;;;;;;;;;;13.87;64.90;98201.78;4968824;28;19925;-63
2023/04/16 11:26:42;;;;;;;;;;;;;;;13.67;64.29;98192.03;4950911;29;20005;-64
2023/04/16 11:29:12;;;;;;;;;;;;;;;13.50;65.57;98204.75;4953426;28;20009;-65
2023/04/16 11:31:37;;;;;;;;;;;;;;;13.46;66.58;98197.22;4952614;29;19922;-63
2023/04/16 11:34:03;;;;;;;;;;;;;;;13.42;66.53;98207.19;4969548;28;20281;-63
2023/04/16 11:36:41;;;;;;;;;;;;;;;13.30;67.83;98208.97;4968632;28;20347;-64
2023/04/16 11:39:06;;;;;;;;;;;;;;;13.26;71.15;98210.19;4958704;28;19997;-62
2023/04/16 11:41:31;;;;;;;;;;;;;;;13.31;69.07;98212.44;4952732;29;20384;-64
2023/04/16 11:43:56;;;;;;;;;;;;;;;13.22;67.78;98214.00;4954407;28;19938;-59
2023/04/16 11:46:21;;;;;;;;;;;;;;;13.14;68.25;98211.13;4953540;29;19919;-65
2023/04/16 11:48:54;;;;;;;;;;;;;;;13.15;68.97;98217.25;4953602;29;19918;-63
2023/04/16 11:51:20;;;;;;;;;;;;;;;13.14;69.66;98215.53;4964674;28;19925;-64
2023/04/16 11:53:46;;;;;;;;;;;;;;;14.75;66.79;98213.78;4951686;28;19925;-63
2023/04/16 11:56:11;;;;;;;;;;;;;;;14.32;65.65;98214.75;4948613;29;19918;-63
2023/04/16 11:58:36;;;;;;;;;;;;;;;14.07;66.52;98215.94;4953950;29;19915;-63
2023/04/16 12:01:02;;;;;;;;;;;;;;;14.05;66.40;98219.69;4949256;29;19942;-63
2023/04/16 12:03:42;;;;;;;;;;;;;;;14.06;67.34;98214.25;4948202;28;19945;-63
2023/04/16 12:06:08;;;;;;;;;;;;;;;14.12;67.41;98215.56;4950757;29;20422;-63
2023/04/16 12:08:33;;;;;;;;;;;;;;;14.16;67.23;98214.34;4946032;28;19919;-64
2023/04/16 12:10:58;;;;;;;;;;;;;;;14.15;67.87;98220.59;4953488;28;19918;-63
2023/04/16 12:13:24;;;;;;;;;;;;;;;14.12;67.88;98212.94;4939530;29;19922;-63
2023/04/16 12:15:50;;;;;;;;;;;;;;;14.10;67.36;98220.13;4934919;29;19961;-63
2023/04/16 12:18:15;;;;;;;;;;;;;;;14.05;68.18;98222.31;4947230;29;19922;-63
2023/04/16 12:20:40;;;;;;;;;;;;;;;13.94;67.36;98220.56;4952075;28;19918;-63
2023/04/16 12:23:07;;;;;;;;;;;;;;;13.80;67.09;98224.31;4951730;28;19928;-63
2023/04/16 12:25:32;;;;;;;;;;;;;;;13.74;66.98;98230.94;4951884;28;19918;-63
2023/04/16 12:27:57;;;;;;;;;;;;;;;13.67;67.28;98227.13;4946579;29;19924;-62
2023/04/16 12:30:23;;;;;;;;;;;;;;;13.58;66.36;98225.22;4951730;29;19922;-63
2023/04/16 12:32:49;;;;;;;;;;;;;;;13.60;66.31;98228.56;4948925;28;19918;-63
2023/04/16 12:35:27;;;;;;;;;;;;;;;13.63;65.88;98236.22;4945026;29;20380;-62
2023/04/16 12:37:53;;;;;;;;;;;;;;;13.67;65.07;98228.91;4949906;29;19920;-63
2023/04/16 12:40:18;;;;;;;;;;;;;;;13.69;65.18;98237.53;4952237;28;19978;-63
2023/04/16 12:42:43;;;;;;;;;;;;;;;13.69;65.72;98227.81;4947094;28;19918;-62
2023/04/16 12:45:08;;;;;;;;;;;;;;;13.72;65.54;98234.63;4954306;29;19932;-62
2023/04/16 12:47:34;;;;;;;;;;;;;;;13.73;65.81;98233.69;4956609;28;19918;-62
2023/04/16 12:49:59;;;;;;;;;;;;;;;13.75;66.51;98242.31;4953439;29;20068;-62
2023/04/16 12:52:24;;;;;;;;;;;;;;;13.74;67.02;98241.47;4955477;28;20299;-62
2023/04/16 12:54:50;;;;;;;;;;;;;;;13.72;66.84;98245.19;4949256;29;19930;-63
2023/04/16 12:57:15;;;;;;;;;;;;;;;13.68;66.39;98238.50;4952182;29;19966;-63
2023/04/16 12:59:40;;;;;;;;;;;;;;;13.54;65.83;98240.44;4953797;29;19989;-62
2023/04/16 13:02:06;;;;;;;;;;;;;;;13.50;65.70;98244.28;4955684;28;19922;-62
2023/04/16 13:04:31;;;;;;;;;;;;;;;13.38;65.75;98236.50;4955215;29;19924;-63
2023/04/16 13:06:56;;;;;;;;;;;;;;;13.36;66.23;98235.81;4954571;29;20375;-63
2023/04/16 13:09:21;;;;;;;;;;;;;;;13.21;65.35;98237.81;4950560;29;20831;-63
2023/04/16 13:11:47;;;;;;;;;;;;;;;13.16;66.31;98235.53;4952681;28;20376;-63
2023/04/16 13:14:12;;;;;;;;;;;;;;;13.15;64.82;98236.50;4951035;28;19968;-62
2023/04/16 13:16:37;;;;;;;;;;;;;;;13.22;65.47;98234.22;4955125;29;19919;-62
2023/04/16 13:19:03;;;;;;;;;;;;;;;13.35;65.27;98239.38;4949382;28;19969;-63
2023/04/16 13:21:28;;;;;;;;;;;;;;;13.52;65.07;98228.34;4952542;29;20005;-62
2023/04/16 13:23:53;;;;;;;;;;;;;;;13.98;64.39;98227.25;4955336;28;19964;-62
2023/04/16 13:26:18;;;;;;;;;;;;;;;14.99;62.17;98223.19;4956160;29;19954;-62
2023/04/16 13:28:44;;;;;;;;;;;;;;;15.36;61.89;98226.94;4955183;29;19972;-63
2023/04/16 13:31:09;;;;;;;;;;;;;;;15.54;61.86;98223.66;4954110;28;19950;-63
2023/04/16 13:33:34;;;;;;;;;;;;;;;15.90;59.36;98223.06;4945520;29;20387;-61
2023/04/16 13:35:59;;;;;;;;;;;;;;;16.80;56.85;98221.88;4955677;29;21066;-63
2023/04/16 13:38:25;;;;;;;;;;;;;;;18.30;52.65;98218.91;4942742;29;20270;-63
2023/04/16 13:40:50;;;;;;;;;;;;;;;18.36;52.89;98215.63;4953589;28;20384;-63
2023/04/16 13:43:17;;;;;;;;;;;;;;;19.68;48.47;98214.41;4951275;28;19925;-62
2023/04/16 13:45:42;;;;;;;;;;;;;;;19.33;48.40;98222.56;4954842;28;20012;-63
2023/04/16 13:48:08;;;;;;;;;;;;;;;19.15;48.00;98220.00;4951121;29;20022;-62
2023/04/16 13:50:34;;;;;;;;;;;;;;;18.90;48.38;98221.69;4945297;28;19926;-61
2023/04/16 13:52:59;;;;;;;;;;;;;;;18.75;47.33;98221.41;4953867;28;19965;-62
2023/04/16 13:55:25;;;;;;;;;;;;;;;18.86;47.21;98226.50;4955349;29;20365;-62
2023/04/16 13:57:52;;;;;;;;;;;;;;;18.79;47.71;98222.78;4954203;28;19918;-62
2023/04/16 14:00:17;;;;;;;;;;;;;;;18.58;46.64;98217.81;4954946;29;19929;-63
2023/04/16 14:02:44;;;;;;;;;;;;;;;18.05;46.73;98223.19;4953693;28;19922;-62
2023/04/16 14:05:09;;;;;;;;;;;;;;;17.49;47.06;98222.41;4953221;29;19919;-62
2023/04/16 14:07:35;;;;;;;;;;;;;;;17.11;48.95;98220.78;4953872;29;19929;-63
2023/04/16 14:10:00;;;;;;;;;;;;;;;16.87;49.56;98223.94;4954769;29;19926;-63
2023/04/16 14:12:26;;;;;;;;;;;;;;;16.66;50.45;98230.25;4953002;28;20344;-61
2023/04/16 14:14:51;;;;;;;;;;;;;;;16.33;50.37;98227.06;4957129;28;20446;-62
2023/04/16 14:17:16;;;;;;;;;;;;;;;15.89;51.01;98226.66;4953692;28;20309;-61
2023/04/16 14:19:41;;;;;;;;;;;;;;;15.52;53.12;98230.88;4953970;28;20288;-61
2023/04/16 14:22:06;;;;;;;;;;;;;;;15.13;55.06;98228.94;4945888;28;19922;-61
2023/04/16 14:24:32;;;;;;;;;;;;;;;14.72;57.10;98233.34;4947306;29;19962;-61
2023/04/16 14:26:57;;;;;;;;;;;;;;;14.42;58.91;98226.19;4953447;29;19914;-62
2023/04/16 14:29:22;;;;;;;;;;;;;;;14.23;59.31;98231.34;4964528;28;19990;-62
2023/04/16 14:31:49;;;;;;;;;;;;;;;14.09;59.74;98229.00;4953026;28;19923;-62
2023/04/16 14:34:14;;;;;;;;;;;;;;;14.10;60.58;98233.31;4953270;28;19923;-62
2023/04/16 14:36:39;;;;;;;;;;;;;;;14.31;60.91;98223.59;4954140;29;20008;-62
2023/04/16 14:39:04;;;;;;;;;;;;;;;14.62;59.05;98226.34;4953128;29;20013;-62
2023/04/16 14:41:30;;;;;;;;;;;;;;;14.62;58.52;98228.97;4950705;29;19964;-62
2023/04/16 14:43:55;;;;;;;;;;;;;;;14.37;59.39;98227.53;4952778;28;19919;-62
2023/04/16 14:46:20;;;;;;;;;;;;;;;14.56;59.36;98232.16;4953855;29;20344;-63
2023/04/16 14:48:46;;;;;;;;;;;;;;;14.78;58.66;98229.34;4952310;29;20363;-62
2023/04/16 14:51:11;;;;;;;;;;;;;;;15.02;57.69;98231.69;4949264;29;20076;-62
2023/04/16 14:53:36;;;;;;;;;;;;;;;15.24;56.83;98233.28;4939601;29;20351;-62
2023/04/16 14:56:02;;;;;;;;;;;;;;;15.28;57.10;98234.72;4945149;28;19932;-62
2023/04/16 14:58:27;;;;;;;;;;;;;;;15.14;56.49;98233.28;4953373;29;19934;-62
2023/04/16 15:00:52;;;;;;;;;;;;;;;15.20;57.47;98237.19;4948804;28;19922;-62
2023/04/16 15:03:17;;;;;;;;;;;;;;;15.41;57.40;98243.22;4952910;28;19946;-63
2023/04/16 15:05:43;;;;;;;;;;;;;;;15.87;56.06;98246.31;4952905;28;19923;-62
2023/04/16 15:08:08;;;;;;;;;;;;;;;16.59;54.48;98252.97;4953088;28;19918;-62
2023/04/16 15:10:33;;;;;;;;;;;;;;;16.46;53.57;98241.84;4966707;28;19918;-62
2023/04/16 15:12:59;;;;;;;;;;;;;;;16.30;53.71;98243.22;4953741;28;19926;-62
2023/04/16 15:15:24;;;;;;;;;;;;;;;16.35;53.43;98245.47;4952693;29;20303;-63
2023/04/16 15:17:50;;;;;;;;;;;;;;;16.96;51.74;98244.25;4966352;28;20324;-63
2023/04/16 15:20:15;;;;;;;;;;;;;;;17.32;50.78;98246.06;4951665;29;20392;-62
2023/04/16 15:22:41;;;;;;;;;;;;;;;17.12;51.60;98247.13;4950762;28;19923;-62
2023/04/16 15:25:06;;;;;;;;;;;;;;;17.76;49.55;98243.63;4967893;28;20380;-62
2023/04/16 15:27:31;;;;;;;;;;;;;;;17.83;48.73;98245.69;4947436;28;20384;-62
2023/04/16 15:29:57;;;;;;;;;;;;;;;18.41;47.18;98245.22;4947998;29;19926;-62
2023/04/16 15:32:22;;;;;;;;;;;;;;;18.57;46.55;98250.66;4950076;28;20061;-62
2023/04/16 15:34:47;;;;;;;;;;;;;;;17.33;49.81;98254.84;4951553;28;20013;-62
2023/04/16 15:37:12;;;;;;;;;;;;;;;16.87;51.80;98258.38;4949189;29;20013;-63
2023/04/16 15:39:38;;;;;;;;;;;;;;;16.64;52.18;98256.00;4949236;29;19961;-63
2023/04/16 15:42:03;;;;;;;;;;;;;;;16.38;53.40;98258.44;4951711;28;19922;-62
2023/04/16 15:44:29;;;;;;;;;;;;;;;16.23;54.27;98263.28;4950646;28;19953;-62
2023/04/16 15:46:55;;;;;;;;;;;;;;;15.75;55.65;98261.44;4950886;29;19941;-62
2023/04/16 15:49:20;;;;;;;;;;;;;;;15.40;56.86;98268.00;4953298;29;20364;-62
2023/04/16 15:51:45;;;;;;;;;;;;;;;15.27;57.98;98263.91;4963566;28;19922;-62
2023/04/16 15:54:11;;;;;;;;;;;;;;;15.07;58.66;98270.91;4950841;28;19925;-62
2023/04/16 15:56:36;;;;;;;;;;;;;;;14.96;59.47;98269.19;4948022;29;19922;-61
2023/04/16 15:59:02;;;;;;;;;;;;;;;14.74;59.91;98274.63;4949001;28;20411;-61
2023/04/16 16:01:27;;;;;;;;;;;;;;;14.23;61.28;98271.72;4951769;28;19927;-61
2023/04/16 16:03:53;;;;;;;;;;;;;;;13.89;62.38;98273.66;4951075;28;19919;-62
2023/04/16 16:06:19;;;;;;;;;;;;;;;13.56;63.27;98279.84;4952493;28;19925;-61
2023/04/16 16:08:44;;;;;;;;;;;;;;;13.39;64.57;98277.72;4951852;28;20503;-62
2023/04/16 16:11:10;;;;;;;;;;;;;;;13.19;65.72;98287.16;4952165;29;20025;-62
2023/04/16 16:13:35;;;;;;;;;;;;;;;13.07;66.08;98287.16;4953215;28;20002;-62
2023/04/16 16:16:02;;;;;;;;;;;;;;;12.83;66.68;98279.34;4950395;28;20296;-63
2023/04/16 16:18:28;;;;;;;;;;;;;;;12.69;68.14;98284.78;4952815;29;19965;-62
2023/04/16 16:20:55;;;;;;;;;;;;;;;12.57;68.67;98283.94;4951711;28;19937;-62
2023/04/16 16:23:21;;;;;;;;;;;;;;;12.47;68.75;98285.59;4953027;28;19929;-62
2023/04/16 16:25:46;;;;;;;;;;;;;;;12.34;69.88;98292.72;4951390;29;19919;-62
2023/04/16 16:28:11;;;;;;;;;;;;;;;12.33;69.62;98289.25;4953285;28;19919;-62
2023/04/16 16:30:36;;;;;;;;;;;;;;;12.25;69.56;98288.13;4952508;28;20012;-62
2023/04/16 16:33:02;;;;;;;;;;;;;;;12.10;68.90;98290.94;4951421;28;20030;-62
2023/04/16 16:35:27;;;;;;;;;;;;;;;11.99;69.79;98288.25;4953005;29;19966;-61
2023/04/16 16:37:56;;;;;;;;;;;;;;;12.00;70.87;98296.97;4950874;28;19918;-62
2023/04/16 16:40:21;;;;;;;;;;;;;;;12.00;70.75;98297.81;4967584;28;19922;-61
2023/04/16 16:42:46;;;;;;;;;;;;;;;12.01;70.77;98303.91;4951332;28;19973;-62
2023/04/16 16:45:12;;;;;;;;;;;;;;;11.99;71.09;98301.41;4952621;28;20373;-61
2023/04/16 16:47:37;;;;;;;;;;;;;;;11.98;71.10;98299.75;4952948;29;20541;-62
2023/04/16 16:50:02;;;;;;;;;;;;;;;12.01;71.01;98303.91;4951617;28;20376;-63
2023/04/16 16:52:27;;;;;;;;;;;;;;;12.05;70.39;98308.84;4949776;28;19926;-62
2023/04/16 16:54:53;;;;;;;;;;;;;;;12.07;70.07;98303.47;4952315;28;19918;-58
2023/04/16 16:57:18;;;;;;;;;;;;;;;12.08;70.26;98306.00;4951044;29;19925;-62
2023/04/16 16:59:44;;;;;;;;;;;;;;;12.13;70.31;98307.44;4950883;29;20439;-62
2023/04/16 17:02:09;;;;;;;;;;;;;;;12.17;70.56;98315.00;4966154;28;19918;-62
2023/04/16 17:04:35;;;;;;;;;;;;;;;12.15;71.24;98310.78;4950936;29;20295;-62
2023/04/16 17:07:00;;;;;;;;;;;;;;;12.09;71.30;98315.56;4951657;28;19927;-60
2023/04/16 17:09:25;;;;;;;;;;;;;;;12.05;71.80;98316.75;4951648;29;19925;-62
2023/04/16 17:11:50;;;;;;;;;;;;;;;12.01;72.15;98310.03;4953554;29;19914;-61
2023/04/16 17:14:16;;;;;;;;;;;;;;;11.88;73.27;98317.13;4951059;28;19926;-60
2023/04/16 17:16:41;;;;;;;;;;;;;;;11.83;73.15;98319.19;4951809;28;19918;-61
2023/04/16 17:19:06;;;;;;;;;;;;;;;11.77;74.30;98315.25;4944628;29;20452;-61
2023/04/16 17:21:32;;;;;;;;;;;;;;;11.72;73.78;98327.00;4952522;29;20354;-61
2023/04/16 17:23:58;;;;;;;;;;;;;;;11.69;75.15;98327.22;4949508;28;19933;-61
2023/04/16 17:26:23;;;;;;;;;;;;;;;11.68;74.74;98334.28;4951414;29;19926;-60
2023/04/16 17:28:49;;;;;;;;;;;;;;;11.63;75.30;98331.97;4953494;28;19961;-62
2023/04/16 17:31:14;;;;;;;;;;;;;;;11.56;75.21;98333.38;4955524;29;20001;-62
2023/04/16 17:33:40;;;;;;;;;;;;;;;11.45;76.17;98333.25;4952203;28;20013;-60
2023/04/16 17:36:06;;;;;;;;;;;;;;;11.41;76.38;98339.69;4955671;29;19965;-60
2023/04/16 17:38:32;;;;;;;;;;;;;;;11.35;76.13;98342.72;4953903;29;19918;-61
2023/04/16 17:40:57;;;;;;;;;;;;;;;11.33;77.23;98344.63;4955763;29;20281;-61
2023/04/16 17:43:23;;;;;;;;;;;;;;;11.36;76.93;98344.44;4954444;28;20025;-61
2023/04/16 17:45:48;;;;;;;;;;;;;;;11.17;77.64;98345.69;4955801;28;20020;-61
2023/04/16 17:48:13;;;;;;;;;;;;;;;11.11;77.60;98348.75;4953491;29;20396;-62
2023/04/16 17:50:38;;;;;;;;;;;;;;;11.06;77.62;98352.63;4956222;29;19969;-61
2023/04/16 17:53:04;;;;;;;;;;;;;;;10.95;78.80;98358.59;4952580;28;19923;-61
2023/04/16 17:55:29;;;;;;;;;;;;;;;10.89;78.66;98356.38;4955786;29;19918;-60
2023/04/16 17:57:54;;;;;;;;;;;;;;;10.82;79.51;98360.38;4955486;28;19974;-61
2023/04/16 18:00:20;;;;;;;;;;;;;;;10.75;78.91;98369.59;4954140;29;19933;-62
2023/04/16 18:02:45;;;;;;;;;;;;;;;10.58;80.02;98366.28;4954801;28;20009;-62
2023/04/16 18:05:12;;;;;;;;;;;;;;;10.55;80.75;98366.50;4953924;28;20313;-62
2023/04/16 18:07:37;;;;;;;;;;;;;;;10.53;81.32;98370.16;4954605;29;20356;-61
2023/04/16 18:10:03;;;;;;;;;;;;;;;10.45;81.26;98375.91;4948333;29;20364;-62
2023/04/16 18:12:28;;;;;;;;;;;;;;;10.37;82.00;98365.09;4954444;28;19919;-62
2023/04/16 18:14:53;;;;;;;;;;;;;;;10.41;81.93;98383.13;4953121;29;19919;-62
2023/04/16 18:17:21;;;;;;;;;;;;;;;10.38;82.04;98379.88;4955757;29;20280;-62
2023/04/16 18:19:46;;;;;;;;;;;;;;;10.36;82.38;98385.22;4954280;29;19923;-63
2023/04/16 18:22:12;;;;;;;;;;;;;;;10.34;82.17;98387.09;4946936;28;19918;-62
2023/04/16 18:24:37;;;;;;;;;;;;;;;10.33;82.67;98395.06;4948590;29;19915;-62
2023/04/16 18:27:02;;;;;;;;;;;;;;;10.25;82.63;98395.50;4955275;29;19915;-62
2023/04/16 18:29:28;;;;;;;;;;;;;;;10.27;82.83;98400.69;4953977;29;19929;-63
2023/04/16 18:31:53;;;;;;;;;;;;;;;10.16;83.24;98396.13;4952519;29;19925;-62
2023/04/16 18:34:19;;;;;;;;;;;;;;;10.15;83.23;98394.41;4950704;28;20384;-62
2023/04/16 18:36:44;;;;;;;;;;;;;;;10.15;83.56;98404.91;4950461;28;20434;-62
2023/04/16 18:39:09;;;;;;;;;;;;;;;10.09;83.35;98406.16;4959887;28;19922;-62
2023/04/16 18:41:35;;;;;;;;;;;;;;;10.04;83.90;98416.06;4950087;29;19974;-62
2023/04/16 18:44:00;;;;;;;;;;;;;;;10.05;84.21;98412.53;4951329;28;19937;-62
2023/04/16 18:46:26;;;;;;;;;;;;;;;10.08;83.61;98417.59;4952189;29;19919;-62
2023/04/16 18:48:51;;;;;;;;;;;;;;;10.05;84.33;98417.78;4952709;29;19925;-62
2023/04/16 18:51:16;;;;;;;;;;;;;;;10.02;84.33;98420.59;4950504;29;19934;-63
2023/04/16 18:53:43;;;;;;;;;;;;;;;10.04;84.40;98423.09;4952425;28;19922;-63
2023/04/16 18:56:08;;;;;;;;;;;;;;;10.02;84.68;98425.00;4953293;29;20029;-62
2023/04/16 18:58:33;;;;;;;;;;;;;;;10.01;84.75;98425.91;4965765;28;20543;-62
2023/04/16 19:00:59;;;;;;;;;;;;;;;9.98;85.46;98426.97;4932946;29;20040;-63
2023/04/16 19:03:27;;;;;;;;;;;;;;;9.98;85.16;98429.56;4941671;29;19918;-62
2023/04/16 19:05:52;;;;;;;;;;;;;;;9.99;85.12;98436.50;4950396;28;20009;-62
2023/04/16 19:08:17;;;;;;;;;;;;;;;10.00;84.88;98440.78;4946022;29;20017;-62
2023/04/16 19:10:45;;;;;;;;;;;;;;;9.98;84.98;98437.44;4950664;29;20009;-62
2023/04/16 19:13:10;;;;;;;;;;;;;;;9.97;85.01;98451.44;4950251;28;20367;-63
2023/04/16 19:15:35;;;;;;;;;;;;;;;9.95;85.30;98445.50;4948189;28;20452;-62
2023/04/16 19:18:00;;;;;;;;;;;;;;;9.93;85.06;98444.72;4946482;29;19935;-63
2023/04/16 19:20:26;;;;;;;;;;;;;;;9.87;85.14;98445.94;4946218;29;19922;-62
2023/04/16 19:22:51;;;;;;;;;;;;;;;9.85;85.59;98447.81;4946752;28;19977;-63
2023/04/16 19:25:16;;;;;;;;;;;;;;;9.87;85.35;98455.56;4949465;28;19934;-62
2023/04/16 19:27:41;;;;;;;;;;;;;;;9.89;84.38;98448.47;4952559;29;19923;-62
2023/04/16 19:30:07;;;;;;;;;;;;;;;9.81;85.28;98453.38;4949350;28;19926;-62
2023/04/16 19:32:32;;;;;;;;;;;;;;;9.80;85.20;98449.03;4950350;28;20389;-62
2023/04/16 19:34:58;;;;;;;;;;;;;;;9.75;85.96;98457.19;4947765;28;19977;-62
2023/04/16 19:37:23;;;;;;;;;;;;;;;9.75;85.74;98457.19;4943086;29;19930;-63
2023/04/16 19:39:48;;;;;;;;;;;;;;;9.78;86.30;98461.41;4947013;29;19927;-62
2023/04/16 19:42:13;;;;;;;;;;;;;;;9.78;85.55;98451.75;4944258;28;19926;-63
2023/04/16 19:44:38;;;;;;;;;;;;;;;9.72;85.95;98458.22;4948436;29;19922;-63
2023/04/16 19:47:05;;;;;;;;;;;;;;;9.72;85.94;98458.22;4943454;29;19952;-63
2023/04/16 19:49:30;;;;;;;;;;;;;;;9.67;86.37;98460.28;4946538;29;20277;-62
2023/04/16 19:51:55;;;;;;;;;;;;;;;9.69;86.58;98460.19;4952583;28;19941;-63
2023/04/16 19:54:20;;;;;;;;;;;;;;;9.64;86.82;98464.88;4949463;28;19922;-63
2023/04/16 19:56:48;;;;;;;;;;;;;;;9.65;87.11;98467.38;4949082;29;19918;-63
2023/04/16 19:59:13;;;;;;;;;;;;;;;9.62;87.24;98469.34;4949897;28;20013;-62
2023/04/16 20:01:38;;;;;;;;;;;;;;;9.58;87.52;98468.69;4950914;29;20010;-62
2023/04/16 20:04:03;;;;;;;;;;;;;;;9.56;87.93;98462.69;4952194;28;20009;-63
2023/04/16 20:06:29;;;;;;;;;;;;;;;9.54;87.65;98469.81;4951706;29;19997;-62
2023/04/16 20:08:55;;;;;;;;;;;;;;;9.49;87.92;98474.47;4946881;29;19918;-61
2023/04/16 20:11:20;;;;;;;;;;;;;;;9.57;87.56;98474.03;4951618;29;19926;-63
2023/04/16 20:13:46;;;;;;;;;;;;;;;9.49;87.57;98474.47;4948861;28;19918;-62
2023/04/16 20:16:12;;;;;;;;;;;;;;;9.49;88.20;98474.47;4945987;28;20307;-62
2023/04/16 20:18:40;;;;;;;;;;;;;;;9.46;88.34;98472.03;4941938;29;19922;-61
2023/04/16 20:21:05;;;;;;;;;;;;;;;9.43;88.54;98477.47;4947281;28;19942;-63
2023/04/16 20:23:31;;;;;;;;;;;;;;;9.39;88.70;98475.94;4945749;28;19926;-62
